Time;durP1;ratioP1;P1;durP2;ratioP2;P2;SDS_P1;SDS_P2;PMS_P1;PMS_P2;Temp;Humidity;BMP_temperature;BMP_pressure;BME280_temperature;BME280_humidity;BME280_pressure;Samples;Min_cycle;Max_cycle;Signal;HPM_P1;HPM_P2
2022/04/14 00:01:36;;;;;;;46.13;25.72;;;;;;;3.96;54.59;100928.06;1797213;79;25586;-73
2022/04/14 00:04:02;;;;;;;44.35;21.80;;;;;;;3.95;54.29;100933.13;1797208;79;25389;-72
2022/04/14 00:06:29;;;;;;;39.20;19.15;;;;;;;3.93;54.61;100922.66;1797101;79;25721;-71
2022/04/14 00:08:56;;;;;;;42.60;22.07;;;;;;;3.95;54.74;100919.74;1797226;79;25518;-71
2022/04/14 00:11:22;;;;;;;41.88;22.20;;;;;;;3.95;54.67;100915.22;1797224;79;27430;-72
2022/04/14 00:13:48;;;;;;;35.95;20.37;;;;;;;3.98;54.58;100921.39;1797063;79;32731;-74
2022/04/14 00:16:14;;;;;;;42.23;20.02;;;;;;;3.99;54.70;100923.55;1797208;79;25613;-74
2022/04/14 00:18:41;;;;;;;38.70;20.97;;;;;;;4.02;54.89;100918.51;1797112;79;25595;-74
2022/04/14 00:21:07;;;;;;;40.63;21.75;;;;;;;4.03;54.72;100912.62;1797162;79;25426;-74
2022/04/14 00:23:33;;;;;;;66.77;59.85;;;;;;;4.04;54.75;100906.22;1797137;79;28170;-74
2022/04/14 00:25:59;;;;;;;35.38;20.65;;;;;;;4.06;54.97;100906.77;1797099;79;25788;-72
2022/04/14 00:28:25;;;;;;;36.73;20.00;;;;;;;4.04;54.90;100907.55;1797121;79;29731;-72
2022/04/14 00:30:51;;;;;;;36.00;20.12;;;;;;;4.02;54.68;100908.31;1797135;79;25616;-71
2022/04/14 00:33:18;;;;;;;39.18;20.48;;;;;;;3.99;54.85;100904.81;1781659;79;32421;-71
2022/04/14 00:35:44;;;;;;;44.67;21.90;;;;;;;3.95;55.18;100901.84;1797126;79;27444;-71
2022/04/14 00:38:10;;;;;;;42.62;23.07;;;;;;;3.95;55.02;100903.68;1797016;79;25562;-71
2022/04/14 00:40:36;;;;;;;39.18;21.20;;;;;;;3.90;54.90;100902.58;1797101;79;25388;-71
2022/04/14 00:43:02;;;;;;;33.55;17.30;;;;;;;3.88;54.97;100907.38;1797105;79;25526;-71
2022/04/14 00:45:28;;;;;;;27.90;16.60;;;;;;;3.85;55.42;100901.72;1797194;79;25587;-71
2022/04/14 00:47:55;;;;;;;32.88;18.67;;;;;;;3.84;55.44;100898.20;1797172;79;27549;-71
2022/04/14 00:50:21;;;;;;;38.85;20.08;;;;;;;3.83;55.50;100899.79;1797060;79;25725;-71
2022/04/14 00:52:48;;;;;;;34.92;18.87;;;;;;;3.81;55.36;100901.91;1797190;79;25366;-71
2022/04/14 00:55:15;;;;;;;36.73;18.37;;;;;;;3.78;55.58;100899.73;1797123;79;25551;-71
2022/04/14 00:57:44;;;;;;;32.45;19.17;;;;;;;3.74;55.70;100895.41;1797211;79;25598;-71
2022/04/14 01:00:11;;;;;;;34.95;16.85;;;;;;;3.70;55.82;100895.63;1794233;79;27454;-71
2022/04/14 01:02:38;;;;;;;35.73;18.87;;;;;;;3.66;55.76;100899.84;1791170;80;25599;-72
2022/04/14 01:05:05;;;;;;;37.28;19.87;;;;;;;3.61;55.86;100896.59;1791272;80;25588;-72
2022/04/14 01:07:34;;;;;;;36.05;18.82;;;;;;;3.61;56.11;100895.25;1771504;80;25580;-72
2022/04/14 01:10:02;;;;;;;33.48;16.40;;;;;;;3.58;56.15;100886.38;1771679;80;25600;-71
2022/04/14 01:12:31;;;;;;;37.40;20.25;;;;;;;3.54;56.24;100889.25;1791246;80;27536;-72
2022/04/14 01:14:58;;;;;;;33.65;19.02;;;;;;;3.53;56.13;100884.44;1791190;79;25613;-71
2022/04/14 01:17:24;;;;;;;33.18;18.73;;;;;;;3.49;56.09;100879.31;1791246;80;25403;-71
2022/04/14 01:19:51;;;;;;;38.20;19.42;;;;;;;3.43;56.27;100884.30;1791163;80;25543;-71
2022/04/14 01:22:25;;;;;;;33.98;15.45;;;;;;;3.38;56.07;100878.88;1791294;80;25538;-71
2022/04/14 01:24:57;;;;;;;32.13;17.70;;;;;;;3.33;56.88;100880.15;1791240;80;27455;-71
2022/04/14 01:27:25;;;;;;;32.48;17.80;;;;;;;3.34;56.90;100875.89;1791100;79;25490;-71
2022/04/14 01:29:52;;;;;;;33.53;16.87;;;;;;;3.31;57.17;100886.28;1790999;79;25610;-71
2022/04/14 01:32:22;;;;;;;31.12;17.37;;;;;;;3.32;57.32;100879.86;1791167;80;25662;-71
2022/04/14 01:34:50;;;;;;;29.60;15.28;;;;;;;3.31;57.29;100876.91;1791358;80;25612;-71
2022/04/14 01:37:17;;;;;;;28.80;15.60;;;;;;;3.29;57.71;100875.02;1791254;80;27527;-71
2022/04/14 01:39:44;;;;;;;34.85;16.77;;;;;;;3.31;57.74;100877.72;1791141;80;25932;-71
2022/04/14 01:42:10;;;;;;;29.72;15.70;;;;;;;3.32;57.19;100878.02;1791213;80;25598;-71
2022/04/14 01:44:36;;;;;;;37.05;27.17;;;;;;;3.30;57.74;100873.95;1791213;80;26180;-72
2022/04/14 01:47:04;;;;;;;34.35;16.23;;;;;;;3.27;57.49;100874.44;1791219;80;25605;-72
2022/04/14 01:49:30;;;;;;;31.27;16.87;;;;;;;3.25;57.94;100875.22;1791242;79;27429;-70
2022/04/14 01:51:56;;;;;;;33.40;18.00;;;;;;;3.25;57.92;100881.39;1791120;80;25615;-70
2022/04/14 01:54:22;;;;;;;28.62;16.00;;;;;;;3.24;57.87;100881.09;1791225;80;29547;-70
2022/04/14 01:56:49;;;;;;;31.62;17.30;;;;;;;3.25;57.93;100889.92;1791205;79;25476;-72
2022/04/14 01:59:15;;;;;;;35.08;18.42;;;;;;;3.25;58.03;100885.91;1791210;79;25597;-71
2022/04/14 02:01:41;;;;;;;31.50;16.70;;;;;;;3.22;57.44;100886.39;1797044;79;27527;-71
2022/04/14 02:04:08;;;;;;;31.15;16.37;;;;;;;3.17;57.58;100888.48;1796982;79;33172;-71
2022/04/14 02:06:35;;;;;;;34.83;17.62;;;;;;;3.11;57.46;100892.92;1797145;79;25392;-71
2022/04/14 02:09:01;;;;;;;34.55;19.15;;;;;;;3.07;57.65;100887.00;1797077;79;26089;-73
2022/04/14 02:11:27;;;;;;;32.10;17.25;;;;;;;3.02;57.76;100884.25;1799478;79;25170;-72
2022/04/14 02:13:53;;;;;;;26.40;15.10;;;;;;;2.94;57.70;100888.92;1798586;79;27440;-72
2022/04/14 02:16:19;;;;;;;29.67;15.83;;;;;;;2.87;58.17;100881.60;1797047;79;25594;-72
2022/04/14 02:18:45;;;;;;;37.17;17.60;;;;;;;2.82;58.42;100879.38;1797177;79;25638;-72
2022/04/14 02:21:12;;;;;;;35.68;17.17;;;;;;;2.73;58.29;100879.78;1797219;79;25663;-72
2022/04/14 02:23:38;;;;;;;32.73;18.90;;;;;;;2.68;58.45;100881.56;1797262;79;25637;-72
2022/04/14 02:26:05;;;;;;;32.55;16.97;;;;;;;2.65;58.73;100883.38;1797251;79;27448;-72
2022/04/14 02:28:31;;;;;;;37.95;18.23;;;;;;;2.65;59.25;100885.52;1797162;79;25754;-72
2022/04/14 02:30:57;;;;;;;35.15;18.67;;;;;;;2.70;59.29;100896.82;1797253;79;25599;-72
2022/04/14 02:33:23;;;;;;;39.13;20.65;;;;;;;2.68;59.24;100893.59;1797196;79;25621;-72
2022/04/14 02:35:49;;;;;;;34.98;18.23;;;;;;;2.65;59.23;100894.86;1797257;79;32294;-72
2022/04/14 02:38:15;;;;;;;92.85;84.97;;;;;;;2.64;59.40;100893.26;1797214;79;28042;-72
2022/04/14 02:40:41;;;;;;;92.33;84.30;;;;;;;2.57;59.41;100883.23;1797128;79;25445;-72
2022/04/14 02:43:07;;;;;;;93.47;84.55;;;;;;;2.54;59.96;100873.05;1797254;79;25543;-72
2022/04/14 02:45:34;;;;;;;91.63;83.07;;;;;;;2.54;60.08;100883.73;1797211;79;25597;-72
2022/04/14 02:48:00;;;;;;;88.60;81.12;;;;;;;2.49;60.08;100877.77;1797261;79;25577;-72
2022/04/14 02:50:26;;;;;;;91.75;83.25;;;;;;;2.52;60.66;100873.29;1797245;79;27596;-72
2022/04/14 02:52:54;;;;;;;91.87;83.78;;;;;;;2.51;60.66;100863.65;1797084;79;25392;-72
2022/04/14 02:55:22;;;;;;;89.77;81.85;;;;;;;2.51;60.32;100866.32;1797246;79;25593;-72
2022/04/14 02:57:49;;;;;;;90.67;82.50;;;;;;;2.51;60.63;100868.98;1797178;79;26236;-72
2022/04/14 03:00:17;;;;;;;87.22;79.58;;;;;;;2.49;60.44;100869.77;1786931;79;25619;-72
2022/04/14 03:02:44;;;;;;;89.95;81.95;;;;;;;2.43;60.53;100865.38;1761403;81;28018;-72
2022/04/14 03:05:11;;;;;;;94.33;85.77;;;;;;;2.39;60.52;100874.39;1761345;81;25384;-72
2022/04/14 03:07:37;;;;;;;87.10;79.23;;;;;;;2.33;60.68;100867.86;1733604;81;25622;-72
2022/04/14 03:10:05;;;;;;;92.43;84.13;;;;;;;2.24;60.87;100872.25;1761407;81;25607;-72
2022/04/14 03:12:46;;;;;;;91.97;82.93;;;;;;;2.20;60.90;100876.45;1761448;81;25588;-72
2022/04/14 03:15:14;;;;;;;33.55;17.80;;;;;;;2.17;60.98;100872.92;1733973;81;27444;-71
2022/04/14 03:17:40;;;;;;;35.48;17.85;;;;;;;2.15;61.14;100888.37;1761343;81;25388;-71
2022/04/14 03:20:08;;;;;;;39.67;19.37;;;;;;;2.10;61.04;100881.60;1761402;81;25417;-71
2022/04/14 03:22:35;;;;;;;33.15;19.27;;;;;;;2.03;61.25;100881.73;1761301;81;25554;-71
2022/04/14 03:25:08;;;;;;;40.33;21.60;;;;;;;2.02;61.45;100891.31;1761427;81;25424;-71
2022/04/14 03:27:34;;;;;;;34.83;17.45;;;;;;;1.97;61.61;100885.88;1761450;81;27998;-71
2022/04/14 03:30:01;;;;;;;39.85;19.85;;;;;;;1.94;61.61;100887.17;1761397;81;25445;-71
2022/04/14 03:32:27;;;;;;;33.02;18.65;;;;;;;1.88;61.48;100885.44;1761497;81;25618;-71
2022/04/14 03:34:53;;;;;;;36.73;19.67;;;;;;;1.83;61.72;100884.01;1761473;81;25535;-71
2022/04/14 03:37:21;;;;;;;38.10;19.48;;;;;;;1.76;61.87;100883.33;1761514;81;25611;-71
2022/04/14 03:39:47;;;;;;;40.05;21.15;;;;;;;1.74;61.97;100877.40;1761361;81;27444;-71
2022/04/14 03:42:14;;;;;;;38.15;19.40;;;;;;;1.71;61.85;100875.23;1761280;81;25468;-71
2022/04/14 03:44:40;;;;;;;35.38;18.75;;;;;;;1.68;62.04;100873.30;1761397;81;25599;-71
2022/04/14 03:47:08;;;;;;;96.35;87.70;;;;;;;1.65;61.97;100867.63;1761318;81;25600;-71
2022/04/14 03:49:34;;;;;;;38.55;20.97;;;;;;;1.56;62.30;100853.84;1761433;81;25461;-71
2022/04/14 03:52:00;;;;;;;38.40;20.68;;;;;;;1.55;62.51;100866.91;1761389;81;27510;-71
2022/04/14 03:54:26;;;;;;;40.33;19.57;;;;;;;1.50;62.62;100861.47;1761317;81;25402;-72
2022/04/14 03:56:53;;;;;;;43.52;20.92;;;;;;;1.46;62.74;100862.97;1761393;81;25558;-72
2022/04/14 03:59:20;;;;;;;38.05;19.98;;;;;;;1.44;62.82;100861.06;1761287;81;25567;-72
2022/04/14 04:01:46;;;;;;;38.58;22.02;;;;;;;1.41;63.16;100857.52;1784250;79;25547;-72
2022/04/14 04:04:13;;;;;;;47.33;23.85;;;;;;;1.45;63.44;100859.50;1791410;80;27514;-72
2022/04/14 04:06:40;;;;;;;40.58;21.80;;;;;;;1.47;63.49;100855.27;1791174;80;25384;-72
2022/04/14 04:09:06;;;;;;;41.13;20.92;;;;;;;1.46;63.48;100854.47;1791304;80;25590;-72
2022/04/14 04:11:32;;;;;;;39.73;21.60;;;;;;;1.52;64.23;100861.24;1791225;80;25716;-72
2022/04/14 04:13:58;;;;;;;37.83;21.07;;;;;;;1.63;64.33;100861.72;1791289;80;25603;-72
2022/04/14 04:16:24;;;;;;;37.40;20.15;;;;;;;1.67;64.31;100858.36;1791281;80;28246;-72
2022/04/14 04:18:50;;;;;;;97.97;89.22;;;;;;;1.67;64.43;100853.55;1791195;79;25623;-72
2022/04/14 04:21:16;;;;;;;92.92;84.25;;;;;;;1.70;64.43;100847.72;1791234;80;25586;-72
2022/04/14 04:23:42;;;;;;;93.90;85.67;;;;;;;1.76;64.43;100845.45;1791219;80;25533;-72
2022/04/14 04:26:09;;;;;;;94.58;85.70;;;;;;;1.83;64.65;100849.33;1791318;80;25514;-72
2022/04/14 04:28:35;;;;;;;91.00;83.47;;;;;;;1.93;64.59;100845.52;1791267;80;32701;-72
2022/04/14 04:31:01;;;;;;;93.95;85.05;;;;;;;2.00;64.42;100844.05;1791192;80;25774;-72
2022/04/14 04:33:27;;;;;;;91.80;83.73;;;;;;;2.05;64.38;100840.14;1791228;80;34646;-72
2022/04/14 04:35:53;;;;;;;92.50;83.42;;;;;;;2.11;64.41;100842.38;1791262;80;25563;-72
2022/04/14 04:38:19;;;;;;;92.50;84.17;;;;;;;2.16;64.08;100836.63;1791251;80;25449;-72
2022/04/14 04:40:46;;;;;;;93.45;84.50;;;;;;;2.21;64.18;100832.71;1791266;80;27561;-72
2022/04/14 04:43:14;;;;;;;90.42;82.17;;;;;;;2.26;64.34;100835.97;1791165;80;25507;-72
2022/04/14 04:45:41;;;;;;;94.35;85.75;;;;;;;2.33;64.25;100835.29;1791222;80;25610;-71
2022/04/14 04:48:08;;;;;;;87.20;79.83;;;;;;;2.42;64.42;100830.39;1791253;80;25622;-72
2022/04/14 04:50:34;;;;;;;86.30;78.97;;;;;;;2.51;64.46;100819.58;1791298;80;25551;-71
2022/04/14 04:53:00;;;;;;;87.30;79.50;;;;;;;2.64;64.50;100822.98;1791271;80;27603;-71
2022/04/14 04:55:26;;;;;;;88.17;80.47;;;;;;;2.77;64.66;100815.98;1791193;80;25545;-71
2022/04/14 04:57:52;;;;;;;87.63;80.33;;;;;;;2.92;64.46;100820.75;1791275;80;25393;-71
2022/04/14 05:00:19;;;;;;;88.30;80.80;;;;;;;3.06;64.40;100820.68;1791225;79;25539;-71
2022/04/14 05:02:46;;;;;;;90.77;82.88;;;;;;;3.23;64.24;100818.52;1797134;79;25440;-71
2022/04/14 05:05:12;;;;;;;90.15;82.37;;;;;;;3.38;64.03;100822.72;1797141;79;27537;-71
2022/04/14 05:07:38;;;;;;;89.83;82.12;;;;;;;3.52;63.80;100819.98;1796967;79;25569;-71
2022/04/14 05:10:06;;;;;;;85.83;78.57;;;;;;;3.69;63.56;100817.75;1797127;79;25555;-72
2022/04/14 05:12:32;;;;;;;36.05;24.65;;;;;;;3.86;63.27;100819.01;1797122;79;25485;-72
2022/04/14 05:14:58;;;;;;;31.33;16.02;;;;;;;4.05;63.11;100828.33;1797194;79;25698;-71
2022/04/14 05:17:24;;;;;;;30.35;15.72;;;;;;;4.22;62.79;100835.44;1797101;79;28134;-71
2022/04/14 05:19:50;;;;;;;32.65;16.48;;;;;;;4.36;62.57;100835.32;1797129;79;32724;-74
2022/04/14 05:22:16;;;;;;;34.65;16.70;;;;;;;4.50;62.43;100837.05;1797250;79;25508;-72
2022/04/14 05:24:43;;;;;;;33.28;17.85;;;;;;;4.67;62.26;100838.27;1797291;79;25542;-72
2022/04/14 05:27:09;;;;;;;36.77;18.12;;;;;;;4.82;61.84;100838.38;1797509;79;25429;-72
2022/04/14 05:29:36;;;;;;;43.40;19.55;;;;;;;4.95;61.65;100834.43;1797178;79;27476;-72
2022/04/14 05:32:05;;;;;;;43.98;19.02;;;;;;;5.10;61.64;100832.39;1797338;79;25392;-71
2022/04/14 05:34:31;;;;;;;38.02;19.12;;;;;;;5.29;61.31;100838.67;1797339;79;25581;-71
2022/04/14 05:36:57;;;;;;;34.45;18.57;;;;;;;5.46;61.18;100836.61;1797191;79;25570;-72
2022/04/14 05:39:23;;;;;;;39.00;17.98;;;;;;;5.63;61.03;100831.59;1797207;79;25443;-73
2022/04/14 05:41:50;;;;;;;37.63;18.98;;;;;;;5.77;60.43;100830.02;1797244;79;27510;-73
2022/04/14 05:44:17;;;;;;;47.03;19.80;;;;;;;5.96;60.36;100828.52;1797124;79;25598;-72
2022/04/14 05:46:43;;;;;;;38.25;17.77;;;;;;;6.14;60.15;100828.53;1797209;79;25635;-71
2022/04/14 05:49:09;;;;;;;38.95;17.57;;;;;;;6.32;59.87;100826.44;1797220;79;25460;-72
2022/04/14 05:51:35;;;;;;;38.90;18.10;;;;;;;6.51;59.38;100833.43;1797191;79;25619;-71
2022/04/14 05:54:02;;;;;;;29.75;16.55;;;;;;;6.69;59.14;100821.31;1797307;79;27676;-72
2022/04/14 05:56:28;;;;;;;36.75;18.50;;;;;;;6.90;59.30;100823.47;1781804;79;25416;-72
2022/04/14 05:58:54;;;;;;;43.78;22.35;;;;;;;7.15;58.63;100825.83;1797210;79;25401;-73
2022/04/14 06:01:21;;;;;;;36.00;18.30;;;;;;;7.39;58.69;100827.37;1795245;79;25541;-72
2022/04/14 06:03:47;;;;;;;39.25;16.30;;;;;;;7.62;57.86;100825.41;1791388;80;25187;-73
2022/04/14 06:06:13;;;;;;;33.63;17.57;;;;;;;7.82;57.24;100824.51;1791466;80;27518;-73
2022/04/14 06:08:41;;;;;;;37.03;17.12;;;;;;;8.05;57.11;100824.92;1791127;80;25843;-73
2022/04/14 06:11:09;;;;;;;29.45;16.60;;;;;;;8.33;55.97;100827.44;1791244;80;25604;-72
2022/04/14 06:13:35;;;;;;;30.40;16.65;;;;;;;8.62;55.70;100836.16;1791172;80;25571;-72
2022/04/14 06:16:02;;;;;;;26.65;15.43;;;;;;;8.89;54.79;100834.86;1791347;79;25588;-72
2022/04/14 06:18:28;;;;;;;29.82;14.30;;;;;;;9.14;54.38;100828.38;1791312;80;27182;-72
2022/04/14 06:20:56;;;;;;;27.42;15.60;;;;;;;9.38;54.03;100829.77;1791147;80;25467;-73
2022/04/14 06:23:23;;;;;;;24.93;13.47;;;;;;;9.92;52.09;100835.83;1791582;80;25632;-72
2022/04/14 06:25:58;;;;;;;27.22;14.05;;;;;;;9.92;52.09;100835.83;1791631;80;25575;-73
2022/04/14 06:28:39;;;;;;;22.58;13.35;;;;;;;10.16;50.94;100830.91;1772350;80;25477;-72
2022/04/14 06:31:05;;;;;;;21.87;12.33;;;;;;;10.43;51.22;100834.31;1791146;80;27525;-72
2022/04/14 06:33:31;;;;;;;20.25;11.53;;;;;;;10.76;50.67;100827.55;1791171;80;25464;-73
2022/04/14 06:36:00;;;;;;;19.42;11.68;;;;;;;11.08;50.32;100827.27;1791267;80;25644;-73
2022/04/14 06:38:27;;;;;;;18.62;10.10;;;;;;;11.33;48.54;100824.63;1791343;80;25682;-73
2022/04/14 06:40:54;;;;;;;17.23;9.95;;;;;;;11.58;48.26;100814.64;1791547;80;25389;-72
2022/04/14 06:43:21;;;;;;;16.15;9.45;;;;;;;11.87;46.75;100816.20;1791642;80;28014;-71
2022/04/14 06:45:48;;;;;;;18.48;10.25;;;;;;;12.12;47.33;100805.38;1791220;80;25812;-73
2022/04/14 06:48:15;;;;;;;17.05;10.25;;;;;;;12.47;46.72;100812.97;1791350;80;25401;-72
2022/04/14 06:50:41;;;;;;;15.68;9.20;;;;;;;12.73;46.36;100811.76;1791259;80;25535;-72
2022/04/14 06:53:08;;;;;;;16.75;9.55;;;;;;;13.03;44.81;100799.86;1791316;80;25536;-72
2022/04/14 06:55:37;;;;;;;15.20;9.60;;;;;;;13.23;44.57;100801.23;1791275;80;27461;-72
2022/04/14 06:58:04;;;;;;;16.48;9.45;;;;;;;13.49;42.66;100806.77;1791491;79;34665;-71
2022/04/14 07:00:30;;;;;;;14.95;9.38;;;;;;;13.68;43.69;100796.17;1791219;80;25597;-73
2022/04/14 07:02:58;;;;;;;16.45;8.83;;;;;;;13.94;43.41;100792.11;1796115;79;25537;-72
2022/04/14 07:05:24;;;;;;;17.80;9.48;;;;;;;14.16;41.92;100791.16;1797265;79;25445;-71
2022/04/14 07:07:51;;;;;;;14.80;9.35;;;;;;;14.32;40.83;100800.97;1797235;79;27474;-72
2022/04/14 07:10:18;;;;;;;16.85;8.18;;;;;;;14.42;40.08;100797.13;1797178;79;25646;-71
2022/04/14 07:12:45;;;;;;;13.28;8.35;;;;;;;14.56;39.26;100797.19;1797186;79;25479;-72
2022/04/14 07:15:13;;;;;;;16.90;8.70;;;;;;;14.80;39.60;100797.25;1797361;79;25547;-73
2022/04/14 07:17:40;;;;;;;16.85;8.40;;;;;;;15.04;39.56;100808.14;1781922;79;25566;-72
2022/04/14 07:20:11;;;;;;;14.78;8.75;;;;;;;15.13;37.61;100794.70;1797289;79;27459;-72
2022/04/14 07:22:50;;;;;;;15.05;8.03;;;;;;;15.25;37.64;100791.28;1797355;79;25574;-72
2022/04/14 07:25:17;;;;;;;11.43;8.08;;;;;;;15.47;37.37;100790.20;1797591;79;25545;-72
2022/04/14 07:27:44;;;;;;;12.88;7.42;;;;;;;15.55;36.24;100779.03;1798078;79;25544;-73
2022/04/14 07:30:12;;;;;;;14.20;7.67;;;;;;;15.73;36.86;100772.87;1797342;79;25546;-73
2022/04/14 07:32:47;;;;;;;14.53;8.30;;;;;;;15.82;35.91;100776.38;1797224;79;28069;-72
2022/04/14 07:35:10;;;;;;;13.22;7.65;;;;;;;15.95;35.02;100779.17;1796318;79;25432;-71
2022/04/14 07:37:36;;;;;;;13.05;8.23;;;;;;;16.10;35.48;100777.19;1797357;79;25448;-73
2022/04/14 07:40:05;;;;;;;13.50;8.30;;;;;;;16.27;35.31;100776.81;1797094;79;25482;-72
2022/04/14 07:42:34;;;;;;;14.58;8.15;;;;;;;16.50;33.80;100772.57;1797288;79;25558;-72
2022/04/14 07:45:00;;;;;;;15.80;8.08;;;;;;;16.59;34.32;100773.27;1797307;79;27725;-73
2022/04/14 07:47:26;;;;;;;12.88;7.90;;;;;;;16.68;33.49;100769.06;1781552;79;25399;-72
2022/04/14 07:49:53;;;;;;;14.63;7.65;;;;;;;16.79;33.88;100772.17;1797215;79;25506;-72
2022/04/14 07:52:19;;;;;;;14.75;8.03;;;;;;;17.07;32.71;100772.91;1797132;79;26271;-72
2022/04/14 07:54:45;;;;;;;11.05;7.00;;;;;;;17.40;34.18;100770.06;1797207;79;25641;-72
2022/04/14 07:57:11;;;;;;;14.83;7.72;;;;;;;17.76;33.44;100761.55;1797396;79;27571;-73
2022/04/14 07:59:38;;;;;;;13.48;7.47;;;;;;;18.16;32.79;100770.33;1797130;79;25550;-72
2022/04/14 08:02:04;;;;;;;13.58;6.95;;;;;;;18.23;32.32;100763.67;1797052;79;25793;-72
2022/04/14 08:04:31;;;;;;;14.68;7.17;;;;;;;18.47;31.42;100764.14;1797405;79;25503;-73
2022/04/14 08:06:58;;;;;;;13.88;7.28;;;;;;;18.61;31.95;100767.82;1797300;79;25369;-72
2022/04/14 08:09:24;;;;;;;10.95;7.08;;;;;;;18.84;30.06;100756.28;1797226;79;28347;-72
2022/04/14 08:11:51;;;;;;;11.88;7.03;;;;;;;19.00;31.04;100766.67;1797098;79;25381;-73
2022/04/14 08:14:17;;;;;;;13.68;7.00;;;;;;;19.02;29.86;100767.11;1797187;79;25408;-73
2022/04/14 08:16:44;;;;;;;15.08;6.53;;;;;;;19.10;29.96;100761.20;1797165;79;26358;-73
2022/04/14 08:19:10;;;;;;;11.63;6.58;;;;;;;19.21;29.60;100750.51;1797185;79;25615;-73
2022/04/14 08:21:36;;;;;;;13.13;6.87;;;;;;;19.44;28.63;100749.25;1797153;79;27669;-73
2022/04/14 08:24:02;;;;;;;10.43;6.70;;;;;;;19.58;27.96;100751.50;1797129;79;25852;-73
2022/04/14 08:26:28;;;;;;;9.10;5.40;;;;;;;19.54;27.25;100747.31;1797268;79;25445;-72
2022/04/14 08:28:56;;;;;;;22.67;20.57;;;;;;;19.64;27.21;100753.41;1797123;79;25500;-73
2022/04/14 08:31:24;;;;;;;72.00;67.30;;;;;;;19.78;27.17;100747.67;1797170;79;25601;-73
2022/04/14 08:33:50;;;;;;;65.90;61.33;;;;;;;19.86;28.08;100739.00;1797161;79;28080;-72
2022/04/14 08:36:19;;;;;;;9.03;5.47;;;;;;;20.04;27.37;100746.78;1797139;79;25576;-73
2022/04/14 08:38:49;;;;;;;9.93;6.20;;;;;;;20.09;26.91;100741.00;1797430;79;25481;-73
2022/04/14 08:41:19;;;;;;;8.35;5.55;;;;;;;20.26;26.93;100742.50;1797175;79;26181;-73
2022/04/14 08:44:02;;;;;;;8.73;5.37;;;;;;;20.54;27.21;100750.47;1797482;79;25597;-73
2022/04/14 08:46:29;;;;;;;12.53;5.30;;;;;;;20.78;26.31;100752.67;1797305;79;27469;-73
2022/04/14 08:48:57;;;;;;;8.48;5.17;;;;;;;20.92;25.74;100738.36;1797130;79;25806;-73
2022/04/14 08:51:33;;;;;;;10.13;4.97;;;;;;;21.10;26.24;100738.66;1755936;79;25513;-73
2022/04/14 08:53:59;;;;;;;9.05;4.87;;;;;;;21.30;25.30;100744.81;1797116;79;26011;-73
2022/04/14 08:56:32;;;;;;;8.58;4.58;;;;;;;21.46;25.04;100750.95;1797688;79;25186;-74
2022/04/14 08:58:59;;;;;;;7.92;4.28;;;;;;;21.62;25.32;100730.96;1797667;79;28240;-73
2022/04/14 09:01:27;;;;;;;7.53;4.65;;;;;;;21.83;24.25;100731.80;1797108;79;25571;-73
2022/04/14 09:03:57;;;;;;;6.95;4.80;;;;;;;21.97;23.00;100731.17;1791279;79;25621;-74
2022/04/14 09:06:28;;;;;;;7.62;4.12;;;;;;;22.15;24.08;100734.13;1791269;80;25537;-74
2022/04/14 09:08:59;;;;;;;8.45;4.83;;;;;;;22.26;23.03;100721.84;1791368;79;25569;-73
2022/04/14 09:11:29;;;;;;;9.18;4.83;;;;;;;22.43;23.60;100725.19;1791335;80;27444;-73
2022/04/14 09:13:55;;;;;;;7.85;5.20;;;;;;;22.61;23.51;100719.81;1791426;80;25651;-73
2022/04/14 09:16:22;;;;;;;9.93;5.72;;;;;;;22.92;24.18;100730.31;1771575;80;25562;-73
2022/04/14 09:18:50;;;;;;;9.98;5.83;;;;;;;23.20;23.64;100724.02;1791263;80;25982;-73
2022/04/14 09:21:17;;;;;;;9.68;5.87;;;;;;;23.44;22.68;100722.58;1791248;80;25400;-73
2022/04/14 09:23:54;;;;;;;7.60;5.15;;;;;;;23.40;22.80;100712.12;1791292;80;27701;-72
2022/04/14 09:26:24;;;;;;;11.80;6.00;;;;;;;23.64;22.50;100727.21;1791277;80;25372;-73
2022/04/14 09:29:07;;;;;;;10.88;5.50;;;;;;;23.64;22.01;100705.91;1791398;80;25392;-73
2022/04/14 09:31:46;;;;;;;7.65;5.22;;;;;;;23.71;22.16;100705.14;1791261;80;25477;-73
2022/04/14 09:34:15;;;;;;;10.43;5.20;;;;;;;23.92;21.55;100700.30;1791461;79;25560;-73
2022/04/14 09:36:41;;;;;;;6.63;4.37;;;;;;;24.23;21.97;100696.64;1772010;80;27592;-72
2022/04/14 09:39:07;;;;;;;7.83;4.80;;;;;;;24.41;21.18;100700.78;1791244;80;25899;-74
2022/04/14 09:41:40;;;;;;;6.00;4.55;;;;;;;24.37;20.65;100693.09;1791226;80;25570;-73
2022/04/14 09:44:11;;;;;;;7.70;4.67;;;;;;;24.09;19.75;100704.29;1791033;79;25465;-73
2022/04/14 09:46:42;;;;;;;6.58;4.42;;;;;;;23.84;19.77;100693.20;1791324;80;25434;-73
2022/04/14 09:49:15;;;;;;;5.47;3.77;;;;;;;23.91;19.60;100686.91;1791225;80;28251;-74
2022/04/14 09:51:50;;;;;;;8.43;4.45;;;;;;;23.82;19.85;100681.16;1790911;79;25419;-73
2022/04/14 09:54:29;;;;;;;6.58;4.47;;;;;;;24.12;20.80;100683.39;1791280;80;25621;-73
2022/04/14 09:56:57;;;;;;;6.92;3.47;;;;;;;24.32;19.36;100697.03;1791550;80;25546;-73
2022/04/14 09:59:28;;;;;;;8.03;4.40;;;;;;;24.27;19.20;100674.53;1791433;80;25614;-74
2022/04/14 10:02:17;;;;;;;6.90;4.20;;;;;;;24.66;19.93;100669.03;1791563;79;27487;-73
2022/04/14 10:04:47;;;;;;;7.78;5.30;;;;;;;24.98;19.79;100656.52;1797268;79;25429;-73
2022/04/14 10:07:19;;;;;;;9.83;5.55;;;;;;;25.14;19.76;100667.14;1797203;79;25637;-73
2022/04/14 10:09:50;;;;;;;7.35;4.22;;;;;;;25.25;19.64;100664.36;1797113;79;25484;-73
2022/04/14 10:12:27;;;;;;;6.10;4.58;;;;;;;25.33;19.36;100653.47;1797210;79;25604;-73
2022/04/14 10:15:02;;;;;;;7.67;4.20;;;;;;;25.58;18.83;100659.50;1797130;79;27477;-73
2022/04/14 10:17:30;;;;;;;7.15;4.90;;;;;;;25.72;19.70;100653.87;1796808;79;25452;-73
2022/04/14 10:19:57;;;;;;;7.58;4.70;;;;;;;25.95;19.32;100658.72;1797247;79;28493;-73
2022/04/14 10:22:26;;;;;;;6.60;4.78;;;;;;;26.05;19.10;100661.44;1797025;79;26333;-72
2022/04/14 10:24:54;;;;;;;9.28;5.37;;;;;;;25.74;18.96;100656.24;1797151;79;25593;-73
2022/04/14 10:27:22;;;;;;;6.20;5.17;;;;;;;25.69;18.98;100655.28;1797448;79;26985;-73
2022/04/14 10:29:50;;;;;;;10.70;4.90;;;;;;;25.62;18.93;100647.02;1797398;79;25576;-72
2022/04/14 10:32:17;;;;;;;7.60;5.25;;;;;;;25.66;17.68;100646.39;1797133;79;25482;-73
2022/04/14 10:34:46;;;;;;;7.37;5.20;;;;;;;25.49;18.62;100643.94;1797104;79;25734;-73
2022/04/14 10:37:24;;;;;;;9.08;5.70;;;;;;;25.75;19.16;100639.05;1797300;79;32710;-73
2022/04/14 10:39:51;;;;;;;9.65;6.00;;;;;;;25.82;19.39;100632.08;1797021;79;27469;-73
2022/04/14 10:42:25;;;;;;;8.53;5.30;;;;;;;26.08;19.47;100631.53;1797176;79;25879;-73
2022/04/14 10:44:55;;;;;;;9.00;5.67;;;;;;;26.27;19.19;100632.97;1797068;79;25531;-73
2022/04/14 10:47:45;;;;;;;9.05;5.30;;;;;;;26.34;18.30;100636.86;1797389;79;26061;-73
2022/04/14 10:50:26;;;;;;;8.15;5.25;;;;;;;26.31;19.14;100630.77;1796897;79;25527;-73
2022/04/14 10:53:13;;;;;;;7.25;5.40;;;;;;;27.01;19.20;100636.05;1797423;79;27510;-73
2022/04/14 10:55:45;;;;;;;9.70;5.10;;;;;;;26.96;18.09;100631.73;1796274;79;25784;-74
2022/04/14 10:58:41;;;;;;;9.10;5.60;;;;;;;27.07;19.21;100644.09;1797273;79;25555;-73
2022/04/14 11:01:14;;;;;;;9.33;5.80;;;;;;;26.98;17.59;100629.92;1797311;79;26377;-73
2022/04/14 11:03:55;;;;;;;8.40;5.60;;;;;;;26.75;17.81;100623.05;1797264;79;25598;-72
2022/04/14 11:06:47;;;;;;;9.63;6.17;;;;;;;26.54;18.25;100628.77;1797238;79;27422;-73
2022/04/14 11:09:57;;;;;;;7.42;5.25;;;;;;;26.25;18.79;100616.53;1797198;79;25555;-73
2022/04/14 11:12:55;;;;;;;9.53;5.10;;;;;;;26.42;18.54;100610.03;1797269;79;25432;-73
2022/04/14 11:15:32;;;;;;;6.62;5.12;;;;;;;26.38;18.84;100596.04;1797221;79;25536;-73
2022/04/14 11:18:06;;;;;;;7.92;4.55;;;;;;;26.58;18.63;100600.38;1797309;79;25570;-73
2022/04/14 11:20:37;;;;;;;8.20;4.95;;;;;;;26.96;19.29;100592.87;1797233;79;28110;-73
2022/04/14 11:23:16;;;;;;;7.85;5.00;;;;;;;27.26;18.22;100591.91;1797180;79;25361;-72
2022/04/14 11:25:44;;;;;;;;;;;;;;;27.17;18.76;100587.65;1800192;79;25357;-73